createdAt,value
2023-04-11T00:01:24.996Z,21.45
2023-04-11T00:03:53.163Z,20.85
2023-04-11T00:06:20.448Z,20.08
2023-04-11T00:08:48.033Z,21.23
2023-04-11T00:11:14.994Z,19.92
2023-04-11T00:13:43.149Z,19.27
2023-04-11T00:16:10.409Z,19.65
2023-04-11T00:18:39.437Z,23.17
2023-04-11T00:21:08.360Z,22.63
2023-04-11T00:23:35.440Z,22.95
2023-04-11T00:26:02.961Z,20.40
2023-04-11T00:28:29.901Z,22.98
2023-04-11T00:30:56.644Z,20.67
2023-04-11T00:33:23.612Z,23.42
2023-04-11T00:35:50.676Z,19.50
2023-04-11T00:38:17.661Z,20.35
2023-04-11T00:40:44.520Z,20.80
2023-04-11T00:43:11.314Z,20.98
2023-04-11T00:45:38.794Z,21.17
2023-04-11T00:48:06.145Z,21.20
2023-04-11T00:50:33.371Z,20.58
2023-04-11T00:53:00.235Z,22.73
2023-04-11T00:55:27.934Z,22.50
2023-04-11T00:57:55.480Z,21.42
2023-04-11T01:00:23.266Z,20.50
2023-04-11T01:02:50.220Z,20.67
2023-04-11T01:05:17.546Z,18.27
2023-04-11T01:07:48.827Z,22.15
2023-04-11T01:10:16.577Z,21.75
2023-04-11T01:12:45.460Z,20.70
2023-04-11T01:15:12.321Z,19.52
2023-04-11T01:17:41.687Z,21.33
2023-04-11T01:20:09.536Z,20.90
2023-04-11T01:22:38.379Z,22.58
2023-04-11T01:25:05.444Z,23.83
2023-04-11T01:27:34.151Z,23.17
2023-04-11T01:30:01.646Z,24.88
2023-04-11T01:32:28.509Z,22.08
2023-04-11T01:34:57.555Z,22.05
2023-04-11T01:37:25.184Z,22.48
2023-04-11T01:39:52.159Z,21.98
2023-04-11T01:42:20.768Z,22.52
2023-04-11T01:44:48.636Z,26.17
2023-04-11T01:47:15.631Z,24.83
2023-04-11T01:49:42.942Z,23.80
2023-04-11T01:52:09.957Z,24.33
2023-04-11T01:54:36.777Z,21.73
2023-04-11T01:57:04.336Z,24.10
2023-04-11T01:59:31.128Z,23.42
2023-04-11T02:01:58.223Z,21.80
2023-04-11T02:04:25.187Z,28.52
2023-04-11T02:06:52.104Z,26.35
2023-04-11T02:09:18.862Z,22.27
2023-04-11T02:11:45.847Z,25.63
2023-04-11T02:14:14.507Z,23.30
2023-04-11T02:16:55.091Z,23.00
2023-04-11T02:19:23.484Z,23.92
2023-04-11T02:21:50.364Z,23.33
2023-04-11T02:24:17.129Z,21.33
2023-04-11T02:26:43.977Z,24.92
2023-04-11T02:29:11.032Z,24.00
2023-04-11T02:31:38.476Z,20.88
2023-04-11T02:34:05.371Z,20.98
2023-04-11T02:36:32.125Z,22.38
2023-04-11T02:38:58.888Z,24.30
2023-04-11T02:41:25.688Z,26.45
2023-04-11T02:43:52.457Z,26.00
2023-04-11T02:46:19.221Z,23.83
2023-04-11T02:48:46.045Z,24.85
2023-04-11T02:51:12.935Z,21.20
2023-04-11T02:53:39.782Z,28.58
2023-04-11T02:56:10.727Z,25.17
2023-04-11T02:58:41.932Z,22.33
2023-04-11T03:01:11.771Z,22.52
2023-04-11T03:03:38.994Z,24.15
2023-04-11T03:06:09.103Z,28.23
2023-04-11T03:08:37.277Z,23.67
2023-04-11T03:11:04.851Z,23.20
2023-04-11T03:13:31.720Z,26.38
2023-04-11T03:15:58.719Z,26.20
2023-04-11T03:18:25.756Z,23.65
2023-04-11T03:20:52.593Z,25.27
2023-04-11T03:23:19.362Z,26.65
2023-04-11T03:25:47.975Z,23.98
2023-04-11T03:28:15.719Z,24.30
2023-04-11T03:30:42.887Z,24.45
2023-04-11T03:33:09.970Z,25.83
2023-04-11T03:35:37.136Z,26.58
2023-04-11T03:38:04.246Z,25.27
2023-04-11T03:40:31.020Z,27.85
2023-04-11T03:42:58.017Z,24.08
2023-04-11T03:45:24.840Z,24.77
2023-04-11T03:47:51.669Z,23.25
2023-04-11T03:50:18.518Z,24.70
2023-04-11T03:52:45.316Z,24.45
2023-04-11T03:55:12.199Z,21.92
2023-04-11T03:57:39.049Z,23.75
2023-04-11T04:00:06.628Z,23.25
2023-04-11T04:02:33.737Z,20.38
2023-04-11T04:05:01.537Z,25.30
2023-04-11T04:07:28.613Z,19.52
2023-04-11T04:09:55.415Z,20.27
2023-04-11T04:12:22.234Z,24.38
2023-04-11T04:14:49.421Z,22.40
2023-04-11T04:17:16.666Z,25.17
2023-04-11T04:19:44.324Z,22.27
2023-04-11T04:22:12.077Z,26.58
2023-04-11T04:24:39.692Z,25.67
2023-04-11T04:27:09.645Z,26.27
2023-04-11T04:29:46.554Z,26.60
2023-04-11T04:32:20.719Z,25.02
2023-04-11T04:34:55.126Z,26.42
2023-04-11T04:37:27.184Z,27.83
2023-04-11T04:39:56.239Z,25.13
2023-04-11T04:42:24.773Z,27.00
2023-04-11T04:44:52.748Z,24.58
2023-04-11T04:47:22.399Z,24.10
2023-04-11T04:49:49.217Z,27.35
2023-04-11T04:52:16.196Z,22.45
2023-04-11T04:54:43.074Z,24.83
2023-04-11T04:57:09.892Z,27.98
2023-04-11T04:59:36.731Z,23.30
2023-04-11T05:02:03.851Z,27.50
2023-04-11T05:04:31.892Z,25.15
2023-04-11T05:06:59.170Z,23.10
2023-04-11T05:09:26.280Z,21.85
2023-04-11T05:11:53.322Z,23.88
2023-04-11T05:14:20.273Z,28.13
2023-04-11T05:16:47.059Z,20.75
2023-04-11T05:19:13.894Z,23.05
2023-04-11T05:21:40.889Z,23.52
2023-04-11T05:24:07.816Z,24.40
2023-04-11T05:26:34.586Z,23.92
2023-04-11T05:29:02.014Z,25.02
2023-04-11T05:31:29.100Z,28.23
2023-04-11T05:33:56.858Z,24.48
2023-04-11T05:36:24.045Z,49.08
2023-04-11T05:38:50.798Z,136.90
2023-04-11T05:41:17.810Z,110.43
2023-04-11T05:43:44.577Z,35.83
2023-04-11T05:46:12.752Z,39.25
2023-04-11T05:48:39.838Z,28.77
2023-04-11T05:51:07.766Z,53.97
2023-04-11T05:53:34.735Z,45.90
2023-04-11T05:56:01.766Z,36.22
2023-04-11T05:58:29.900Z,31.70
2023-04-11T06:00:59.463Z,27.20
2023-04-11T06:03:26.886Z,30.80
2023-04-11T06:05:54.354Z,25.20
2023-04-11T06:08:21.577Z,24.05
2023-04-11T06:10:48.434Z,28.80
2023-04-11T06:13:15.331Z,24.17
2023-04-11T06:15:42.207Z,25.58
2023-04-11T06:18:09.053Z,29.80
2023-04-11T06:20:35.825Z,28.35
2023-04-11T06:23:02.620Z,27.30
2023-04-11T06:25:29.448Z,24.92
2023-04-11T06:27:56.291Z,25.08
2023-04-11T06:30:23.171Z,24.00
2023-04-11T06:32:50.182Z,26.40
2023-04-11T06:35:17.120Z,28.33
2023-04-11T06:37:45.996Z,27.25
2023-04-11T06:40:13.056Z,25.20
2023-04-11T06:42:39.842Z,25.98
2023-04-11T06:45:07.101Z,28.10
2023-04-11T06:47:33.895Z,27.48
2023-04-11T06:50:00.731Z,26.52
2023-04-11T06:52:28.370Z,22.48
2023-04-11T06:54:55.227Z,26.88
2023-04-11T06:57:22.080Z,19.90
2023-04-11T06:59:48.948Z,22.65
2023-04-11T07:02:16.091Z,21.02
2023-04-11T07:04:43.066Z,21.95
2023-04-11T07:07:10.014Z,21.45
2023-04-11T07:09:36.853Z,19.92
2023-04-11T07:12:05.182Z,22.17
2023-04-11T07:14:32.107Z,25.60
2023-04-11T07:16:58.861Z,21.55
2023-04-11T07:19:25.614Z,20.45
2023-04-11T07:21:52.606Z,20.73
2023-04-11T07:24:21.051Z,20.10
2023-04-11T07:26:50.541Z,22.85
2023-04-11T07:29:17.463Z,22.50
2023-04-11T07:31:45.133Z,23.27
2023-04-11T07:34:12.110Z,21.33
2023-04-11T07:36:39.006Z,29.92
2023-04-11T07:39:09.306Z,23.65
2023-04-11T07:41:39.636Z,23.25
2023-04-11T07:44:07.604Z,24.02
2023-04-11T07:46:34.571Z,18.45
2023-04-11T07:49:01.383Z,22.02
2023-04-11T07:51:28.155Z,21.08
2023-04-11T07:53:55.103Z,18.95
2023-04-11T07:56:22.226Z,21.48
2023-04-11T07:58:49.030Z,18.15
2023-04-11T08:01:26.866Z,21.83
2023-04-11T08:03:54.991Z,17.08
2023-04-11T08:06:22.443Z,21.67
2023-04-11T08:08:50.669Z,18.67
2023-04-11T08:11:17.476Z,17.80
2023-04-11T08:13:44.232Z,18.85
2023-04-11T08:16:12.412Z,18.45
2023-04-11T08:18:42.446Z,16.17
2023-04-11T08:21:12.684Z,21.83
2023-04-11T08:23:42.167Z,19.08
2023-04-11T08:26:10.712Z,18.90
2023-04-11T08:28:37.613Z,18.30
2023-04-11T08:31:05.531Z,16.58
2023-04-11T08:33:32.502Z,20.85
2023-04-11T08:35:59.399Z,16.45
2023-04-11T08:38:26.220Z,17.50
2023-04-11T08:40:53.169Z,20.67
2023-04-11T08:43:20.110Z,14.57
2023-04-11T08:45:47.196Z,24.42
2023-04-11T08:48:14.093Z,17.42
2023-04-11T08:50:42.346Z,14.75
2023-04-11T08:53:09.571Z,16.58
2023-04-11T08:55:47.561Z,19.58
2023-04-11T08:58:14.813Z,20.30
2023-04-11T09:00:41.688Z,21.13
2023-04-11T09:03:10.199Z,18.83
2023-04-11T09:05:41.133Z,21.27
2023-04-11T09:08:09.874Z,16.77
2023-04-11T09:10:38.060Z,21.77
2023-04-11T09:13:24.632Z,17.95
2023-04-11T09:16:17.422Z,18.80
2023-04-11T09:18:46.642Z,26.33
2023-04-11T09:21:15.605Z,15.55
2023-04-11T09:23:43.290Z,16.95
2023-04-11T09:26:12.365Z,17.15
2023-04-11T09:28:52.800Z,17.85
2023-04-11T09:31:39.365Z,16.92
2023-04-11T09:34:06.873Z,18.55
2023-04-11T09:36:33.814Z,19.88
2023-04-11T09:39:02.211Z,17.27
2023-04-11T09:41:38.968Z,16.35
2023-04-11T09:44:05.864Z,16.80
2023-04-11T09:46:33.064Z,19.90
2023-04-11T09:49:01.790Z,14.48
2023-04-11T09:53:40.494Z,14.43
2023-04-11T09:54:16.305Z,19.83
2023-04-11T09:56:43.179Z,14.60
2023-04-11T09:59:10.242Z,17.17
2023-04-11T10:01:38.817Z,17.23
2023-04-11T10:04:05.650Z,19.85
2023-04-11T10:07:02.102Z,16.27
2023-04-11T10:09:31.316Z,17.63
2023-04-11T10:11:58.295Z,16.15
2023-04-11T10:14:37.468Z,15.65
2023-04-11T10:17:14.913Z,15.80
2023-04-11T10:19:44.240Z,17.13
2023-04-11T10:22:31.782Z,18.90
2023-04-11T10:25:20.121Z,19.40
2023-04-11T10:27:53.562Z,17.83
2023-04-11T10:31:00.039Z,20.55
2023-04-11T10:33:27.763Z,25.33
2023-04-11T10:36:11.520Z,22.45
2023-04-11T10:38:42.031Z,25.45
2023-04-11T10:41:16.494Z,19.83
2023-04-11T10:43:43.615Z,23.35
2023-04-11T10:46:26.560Z,20.23
2023-04-11T10:49:04.519Z,23.05
2023-04-11T10:51:33.391Z,19.08
2023-04-11T10:54:00.758Z,24.15
2023-04-11T10:56:43.322Z,22.25
2023-04-11T10:59:32.080Z,27.65
2023-04-11T11:02:02.690Z,22.85
2023-04-11T11:04:37.865Z,20.83
2023-04-11T11:07:07.267Z,16.92
2023-04-11T11:09:34.995Z,18.02
2023-04-11T11:12:12.680Z,20.52
2023-04-11T11:14:41.689Z,17.05
2023-04-11T11:17:09.064Z,19.10
2023-04-11T11:19:36.278Z,21.90
2023-04-11T11:22:04.680Z,18.05
2023-04-11T11:24:31.675Z,21.70
2023-04-11T11:26:58.859Z,21.75
2023-04-11T11:29:37.805Z,23.58
2023-04-11T11:32:06.438Z,18.65
2023-04-11T11:34:35.036Z,18.48
2023-04-11T11:37:06.539Z,18.02
2023-04-11T11:39:34.473Z,16.23
2023-04-11T11:42:01.702Z,23.83
2023-04-11T11:44:30.128Z,16.27
2023-04-11T11:47:12.818Z,17.13
2023-04-11T11:49:46.683Z,19.90
2023-04-11T11:52:31.797Z,23.27
2023-04-11T11:54:58.968Z,19.73
2023-04-11T11:57:26.104Z,17.92
2023-04-11T11:59:57.211Z,14.25
2023-04-11T12:02:27.851Z,12.18
2023-04-11T12:05:02.893Z,21.17
2023-04-11T12:07:34.195Z,14.75
2023-04-11T12:10:02.633Z,17.45
2023-04-11T12:12:36.973Z,15.65
2023-04-11T12:15:14.372Z,15.32
2023-04-11T12:17:41.439Z,16.88
2023-04-11T12:20:10.708Z,13.55
2023-04-11T12:22:38.419Z,18.10
2023-04-11T12:25:10.519Z,16.58
2023-04-11T12:27:38.565Z,16.60
2023-04-11T12:30:06.093Z,13.85
2023-04-11T12:32:34.196Z,11.27
2023-04-11T12:35:02.122Z,12.65
2023-04-11T12:37:29.236Z,20.70
2023-04-11T12:39:55.999Z,16.58
2023-04-11T12:42:26.779Z,13.32
2023-04-11T12:44:54.309Z,14.43
2023-04-11T12:47:21.271Z,10.50
2023-04-11T12:49:48.082Z,11.45
2023-04-11T12:52:14.858Z,13.15
2023-04-11T12:54:41.618Z,12.02
2023-04-11T12:57:12.408Z,11.93
2023-04-11T12:59:39.548Z,14.77
2023-04-11T13:02:06.607Z,8.05
2023-04-11T13:04:33.643Z,8.23
2023-04-11T13:07:01.605Z,12.82
2023-04-11T13:09:32.435Z,10.85
2023-04-11T13:12:01.863Z,10.07
2023-04-11T13:14:29.284Z,10.43
2023-04-11T13:16:56.768Z,12.20
2023-04-11T13:19:24.072Z,8.38
2023-04-11T13:21:50.936Z,12.10
2023-04-11T13:24:17.766Z,9.65
2023-04-11T13:26:45.236Z,10.38
2023-04-11T13:29:12.263Z,12.00
2023-04-11T13:31:39.092Z,9.45
2023-04-11T13:34:06.206Z,9.63
2023-04-11T13:36:33.066Z,9.48
2023-04-11T13:38:59.935Z,9.07
2023-04-11T13:41:26.927Z,9.20
2023-04-11T13:43:54.079Z,7.43
2023-04-11T13:46:21.856Z,6.70
2023-04-11T13:48:48.841Z,8.13
2023-04-11T13:51:15.936Z,8.05
2023-04-11T13:53:42.744Z,4.80
2023-04-11T13:56:10.629Z,4.90
2023-04-11T13:58:38.309Z,5.40
2023-04-11T14:01:06.748Z,7.53
2023-04-11T14:03:33.995Z,9.32
2023-04-11T14:06:01.615Z,7.35
2023-04-11T14:08:29.104Z,8.23
2023-04-11T14:10:56.475Z,10.82
2023-04-11T14:13:23.516Z,5.13
2023-04-11T14:16:04.802Z,7.47
2023-04-11T14:18:34.742Z,5.40
2023-04-11T14:21:01.948Z,7.30
2023-04-11T14:23:29.440Z,4.38
2023-04-11T14:25:56.848Z,3.47
2023-04-11T14:28:26.486Z,5.65
2023-04-11T14:30:54.119Z,5.97
2023-04-11T14:33:21.132Z,5.57
2023-04-11T14:35:48.080Z,6.00
2023-04-11T14:38:15.863Z,9.45
2023-04-11T14:40:42.969Z,7.70
2023-04-11T14:43:09.816Z,9.20
2023-04-11T14:45:36.976Z,6.70
2023-04-11T14:48:04.029Z,6.90
2023-04-11T14:50:31.399Z,8.82
2023-04-11T14:52:58.342Z,8.45
2023-04-11T14:55:25.234Z,6.30
2023-04-11T14:57:54.769Z,7.80
2023-04-11T15:00:22.537Z,4.82
2023-04-11T15:02:56.277Z,4.43
2023-04-11T15:05:24.174Z,4.20
2023-04-11T15:07:52.937Z,4.15
2023-04-11T15:10:22.034Z,8.90
2023-04-11T15:12:49.213Z,2.03
2023-04-11T15:15:16.589Z,2.28
2023-04-11T15:17:49.186Z,3.05
2023-04-11T15:20:16.936Z,2.92
2023-04-11T15:22:45.514Z,1.80
2023-04-11T15:25:15.114Z,3.58
2023-04-11T15:27:42.253Z,2.35
2023-04-11T15:30:10.116Z,3.75
2023-04-11T15:32:42.588Z,1.33
2023-04-11T15:35:10.152Z,1.83
2023-04-11T15:37:37.302Z,4.50
2023-04-11T15:40:06.325Z,2.80
2023-04-11T15:42:35.431Z,2.50
2023-04-11T15:45:02.756Z,2.78
2023-04-11T15:47:30.341Z,2.13
2023-04-11T15:49:58.995Z,2.03
2023-04-11T15:52:26.429Z,3.45
2023-04-11T15:54:53.340Z,3.05
2023-04-11T15:57:20.197Z,1.30
2023-04-11T15:59:46.947Z,1.83
2023-04-11T16:02:15.195Z,1.70
2023-04-11T16:04:46.308Z,2.15
2023-04-11T16:07:18.259Z,1.10
2023-04-11T16:09:46.406Z,1.98
2023-04-11T16:12:13.412Z,1.15
2023-04-11T16:14:40.476Z,1.02
2023-04-11T16:17:07.291Z,0.60
2023-04-11T16:19:34.079Z,1.27
2023-04-11T16:22:00.907Z,0.70
2023-04-11T16:24:31.191Z,1.00
2023-04-11T16:26:58.431Z,0.68
2023-04-11T16:29:25.433Z,0.60
2023-04-11T16:31:52.298Z,0.43
2023-04-11T16:34:19.196Z,0.77
2023-04-11T16:36:46.024Z,1.50
2023-04-11T16:39:12.984Z,1.52
2023-04-11T16:41:39.805Z,0.60
2023-04-11T16:44:11.532Z,0.88
2023-04-11T16:49:05.705Z,3.78
2023-04-11T16:51:33.042Z,2.50
2023-04-11T16:54:00.030Z,0.60
2023-04-11T16:56:29.017Z,1.35
2023-04-11T16:58:56.972Z,0.57
2023-04-11T17:01:23.921Z,0.95
2023-04-11T17:03:52.436Z,0.47
2023-04-11T17:06:19.549Z,1.85
2023-04-11T17:08:46.491Z,2.15
2023-04-11T17:11:13.622Z,2.90
2023-04-11T17:13:42.059Z,1.60
2023-04-11T17:16:10.448Z,2.17
2023-04-11T17:18:40.816Z,0.60
2023-04-11T17:21:07.732Z,1.17
2023-04-11T17:23:42.517Z,3.40
2023-04-11T17:26:10.776Z,2.67
2023-04-11T17:28:38.359Z,1.77
2023-04-11T17:31:16.106Z,1.23
2023-04-11T17:33:43.101Z,1.40
2023-04-11T17:36:12.450Z,3.00
2023-04-11T17:38:40.621Z,1.20
2023-04-11T17:41:14.523Z,5.57
2023-04-11T17:43:42.601Z,1.20
2023-04-11T17:46:09.802Z,1.90
2023-04-11T17:48:36.853Z,1.70
2023-04-11T17:51:05.558Z,2.13
2023-04-11T17:53:32.885Z,1.58
2023-04-11T17:56:04.529Z,1.95
2023-04-11T17:58:31.798Z,4.40
2023-04-11T18:00:58.747Z,1.92
2023-04-11T18:03:26.087Z,2.05
2023-04-11T18:05:54.573Z,1.15
2023-04-11T18:08:29.924Z,1.90
2023-04-11T18:11:04.331Z,1.27
2023-04-11T18:13:31.660Z,2.80
2023-04-11T18:15:58.805Z,2.35
2023-04-11T18:18:25.978Z,1.10
2023-04-11T18:20:52.871Z,3.20
2023-04-11T18:23:19.667Z,1.67
2023-04-11T18:25:46.444Z,3.33
2023-04-11T18:28:13.227Z,1.27
2023-04-11T18:30:40.038Z,1.80
2023-04-11T18:33:06.983Z,1.80
2023-04-11T18:35:33.844Z,1.05
2023-04-11T18:38:00.950Z,3.97
2023-04-11T18:40:28.367Z,0.90
2023-04-11T18:42:56.408Z,1.33
2023-04-11T18:45:24.032Z,2.28
2023-04-11T18:47:51.223Z,2.78
2023-04-11T18:50:19.048Z,3.28
2023-04-11T18:52:47.133Z,2.22
2023-04-11T18:55:15.086Z,1.38
2023-04-11T18:57:46.163Z,3.83
2023-04-11T19:00:18.430Z,2.20
2023-04-11T19:02:46.925Z,2.47
2023-04-11T19:05:14.636Z,3.28
2023-04-11T19:07:42.776Z,4.72
2023-04-11T19:10:11.238Z,1.83
2023-04-11T19:12:38.573Z,2.22
2023-04-11T19:15:07.985Z,3.65
2023-04-11T19:17:38.870Z,3.63
2023-04-11T19:20:13.107Z,6.85
2023-04-11T19:22:41.060Z,7.20
2023-04-11T19:25:11.622Z,4.10
2023-04-11T19:27:41.221Z,5.75
2023-04-11T19:30:09.272Z,7.25
2023-04-11T19:32:38.748Z,3.92
2023-04-11T19:35:08.663Z,3.35
2023-04-11T19:37:36.258Z,6.28
2023-04-11T19:40:07.434Z,3.10
2023-04-11T19:42:37.039Z,5.32
2023-04-11T19:45:05.062Z,3.47
2023-04-11T19:47:32.664Z,2.58
2023-04-11T19:50:00.974Z,7.55
2023-04-11T19:52:28.745Z,3.50
2023-04-11T19:54:56.554Z,3.35
2023-04-11T19:57:26.411Z,5.00
2023-04-11T19:59:53.482Z,4.28
2023-04-11T20:02:21.231Z,3.03
2023-04-11T20:04:49.470Z,2.25
2023-04-11T20:07:16.622Z,2.13
2023-04-11T20:09:43.507Z,2.80
2023-04-11T20:12:10.448Z,3.85
2023-04-11T20:14:38.325Z,2.50
2023-04-11T20:17:06.649Z,4.03
2023-04-11T20:19:33.522Z,3.03
2023-04-11T20:22:03.249Z,4.13
2023-04-11T20:24:30.038Z,2.60
2023-04-11T20:26:57.121Z,2.45
2023-04-11T20:31:57.523Z,4.35
2023-04-11T20:34:24.305Z,2.30
2023-04-11T20:36:51.155Z,2.58
2023-04-11T20:39:17.921Z,3.17
2023-04-11T20:41:44.670Z,8.68
2023-04-11T20:44:11.442Z,8.82
2023-04-11T20:46:39.893Z,2.97
2023-04-11T20:49:07.009Z,3.33
2023-04-11T20:51:34.663Z,2.92
2023-04-11T20:54:01.701Z,4.85
2023-04-11T20:56:35.053Z,3.55
2023-04-11T20:59:02.450Z,14.43
2023-04-11T21:01:33.687Z,4.13
2023-04-11T21:04:04.142Z,3.65
2023-04-11T21:06:31.853Z,4.57
2023-04-11T21:09:00.144Z,6.95
2023-04-11T21:11:27.189Z,3.15
2023-04-11T21:13:54.779Z,4.63
2023-04-11T21:16:22.205Z,6.85
2023-04-11T21:18:49.242Z,4.65
2023-04-11T21:21:16.410Z,2.78
2023-04-11T21:23:43.859Z,4.40
2023-04-11T21:26:11.772Z,8.13
2023-04-11T21:28:38.696Z,4.65
2023-04-11T21:31:05.844Z,3.17
2023-04-11T21:33:32.707Z,4.03
2023-04-11T21:35:59.599Z,3.90
2023-04-11T21:38:26.410Z,2.80
2023-04-11T21:40:53.217Z,7.18
2023-04-11T21:43:19.961Z,2.58
2023-04-11T21:45:46.835Z,8.13
2023-04-11T21:48:13.661Z,6.78
2023-04-11T21:50:40.730Z,0.98
2023-04-11T21:53:07.523Z,1.80
2023-04-11T21:55:34.496Z,2.97
2023-04-11T21:58:01.284Z,4.63
2023-04-11T22:00:28.056Z,4.95
2023-04-11T22:02:54.976Z,1.88
2023-04-11T22:05:22.299Z,6.32
2023-04-11T22:07:50.647Z,1.83
2023-04-11T22:10:22.579Z,3.33
2023-04-11T22:12:50.231Z,6.20
2023-04-11T22:15:18.465Z,3.88
2023-04-11T22:17:50.303Z,1.55
2023-04-11T22:20:18.188Z,2.17
2023-04-11T22:22:45.092Z,11.07
2023-04-11T22:25:12.046Z,2.58
2023-04-11T22:27:39.053Z,1.33
2023-04-11T22:30:07.214Z,3.17
2023-04-11T22:32:34.363Z,2.05
2023-04-11T22:35:01.328Z,1.05
2023-04-11T22:37:28.138Z,2.15
2023-04-11T22:39:55.113Z,3.28
2023-04-11T22:42:22.126Z,3.47
2023-04-11T22:44:48.891Z,1.30
2023-04-11T22:47:17.011Z,2.30
2023-04-11T22:49:44.966Z,3.13
2023-04-11T22:52:14.431Z,3.85
2023-04-11T22:54:42.781Z,1.42
2023-04-11T22:57:10.024Z,2.40
2023-04-11T22:59:37.038Z,0.60
2023-04-11T23:02:04.014Z,2.50
2023-04-11T23:04:32.314Z,1.52
2023-04-11T23:06:59.563Z,1.83
2023-04-11T23:09:27.121Z,1.48
2023-04-11T23:11:53.874Z,0.98
2023-04-11T23:14:21.354Z,0.50
2023-04-11T23:16:48.616Z,1.38
2023-04-11T23:19:15.720Z,1.92
2023-04-11T23:21:43.037Z,1.15
2023-04-11T23:24:10.044Z,2.10
2023-04-11T23:26:37.170Z,0.70
2023-04-11T23:29:04.497Z,8.35
2023-04-11T23:31:32.638Z,2.90
2023-04-11T23:34:00.615Z,2.42
2023-04-11T23:36:28.078Z,1.55
2023-04-11T23:38:55.046Z,1.75
2023-04-11T23:41:21.916Z,2.50
2023-04-11T23:43:48.831Z,3.88
2023-04-11T23:46:18.179Z,0.70
2023-04-11T23:48:46.955Z,9.05
2023-04-11T23:51:14.149Z,3.17
2023-04-11T23:53:42.554Z,2.97
2023-04-11T23:56:09.749Z,3.15
2023-04-11T23:58:36.697Z,3.58
